Impacts METAR Board
IDs:

KTPA - Tampa Intl Arpt, FL, US

Updated at: 0800 UTC 21 Sep 2018
Potential Impact None Slight Moderate High
Time 20/20Z 20/21Z 20/22Z 20/23Z 21/00Z 21/01Z 21/02Z 21/03Z 21/04Z 21/05Z 21/06Z 21/07Z 21/08Z
Temp95 95 83 78 78 77 78 79 78 78 78 79
Dewpt74 74 73 72 73 74 74 74 74 74 73 73
Altim29.98 29.97 29.99 30.04 30.06 30.08 30.07 30.08 30.07 30.05 30.04 30.04
VIS10 10 10 4 10 3 10 10 10 10 10 10
CIG45 90 90 70 90 35 120 120 -- -- -- --
CoverBKNBKNBKNOVCBKNOVCBKNBKNSCTSCTSCTCLR
FltCatVFRVFRVFRMVFRVFRMVFRVFRVFRVFRVFRVFRVFR
WX----TSVCTS -RA--+RA BR-RA----------
WDir26024028030160011006050700
WSpd7 8 7 7 7 0 3 0 4 3 4 0
WGst-- -- -- -- -- -- -- -- -- -- -- --
Raw hourly METARs
KTPA 201953Z 26007KT 10SM BKN045 35/23 A2998 RMK AO2 SLP152 TCU DSNT ALQDS T03500233
KTPA 202053Z 24008KT 10SM SCT045TCU BKN090 35/23 A2997 RMK AO2 SLP149 TCU NW-S AND DSNT SW-W VCSH SE-S T03500233 56019
KTPA 202153Z 28007KT 10SM TS SCT012 SCT040CB BKN090 28/23 A2999 RMK AO2 PK WND 16032/2124 WSHFT 2122 LTG DSNT NW RAB02E50 TSB01E28B30E50B52 SLP154 CB ALQDS MOV SW P0106 T02830228

KTPA 202353Z 03007KT 4SM VCTS -RA FEW013 SCT040 OVC070 26/22 A3004 RMK AO2 LTG DSNT ALQDS RAB02 TSB08E29B31E38 SLP172 CB E-SW MOV SW CB DSNT ALQDS P0011 60117 T02560222 10350 20256 53023
KTPA 210053Z 16007KT 10SM FEW015 SCT060 BKN090 BKN150 26/23 A3006 RMK AO2 LTG DSNT ALQDS RAE47 SLP178 P0008 T02560228
KTPA 210203Z 00000KT 3SM +RA BR BKN035CB OVC075 25/23 A3008 RMK AO2 TSE0157 CB W MOV SW P0014 T02500233
KTPA 210253Z 11003KT 10SM -RA FEW080 SCT100 BKN120 26/23 A3007 RMK AO2 TSE0157 SLP182 CB W MOV SW P0026 60057 T02560233 50010
KTPA 210353Z 00000KT 10SM FEW080 BKN120 26/23 A3008 RMK AO2 RAE0257 SLP185 P0000 T02610233
KTPA 210453Z 06004KT 10SM FEW080 SCT120 26/23 A3007 RMK AO2 SLP182 T02560233 403560250
KTPA 210553Z 05003KT 10SM FEW080 SCT120 26/23 A3005 RMK AO2 SLP176 60057 T02560233 10267 20250 58006
KTPA 210653Z 07004KT 10SM SCT120 26/23 A3004 RMK AO2 SLP173 T02560228
KTPA 210753Z 00000KT 10SM CLR 26/23 A3004 RMK AO2 SLP172 T02610228



Page loaded:  08:06 UTC  |   01:06 AM Pacific  |   02:06 AM Mountain  |   03:06 AM Central  |   04:06 AM Eastern

 

ADVISORIES

FORECASTS

FORECASTS

OBSERVATIONS

USER TOOLS

ABOUT US